sensor_id;sensor_type;location;lat;lon;timestamp;P1;durP1;ratioP1;P2;durP2;ratioP2
10550;SDS011;5324;50.684;3.862;2022-12-07T00:01:06;12.67;;;8.90;;
10550;SDS011;5324;50.684;3.862;2022-12-07T00:03:32;14.10;;;9.90;;
10550;SDS011;5324;50.684;3.862;2022-12-07T00:05:58;14.57;;;10.07;;
10550;SDS011;5324;50.684;3.862;2022-12-07T00:08:24;13.60;;;8.73;;
10550;SDS011;5324;50.684;3.862;2022-12-07T00:10:50;11.47;;;9.27;;
10550;SDS011;5324;50.684;3.862;2022-12-07T00:13:16;14.00;;;9.33;;
10550;SDS011;5324;50.684;3.862;2022-12-07T00:15:42;14.30;;;10.27;;
10550;SDS011;5324;50.684;3.862;2022-12-07T00:18:08;13.13;;;9.27;;
10550;SDS011;5324;50.684;3.862;2022-12-07T00:20:34;12.40;;;9.80;;
10550;SDS011;5324;50.684;3.862;2022-12-07T00:23:00;11.97;;;9.17;;
10550;SDS011;5324;50.684;3.862;2022-12-07T00:25:26;11.90;;;8.57;;
10550;SDS011;5324;50.684;3.862;2022-12-07T00:27:53;11.53;;;8.30;;
10550;SDS011;5324;50.684;3.862;2022-12-07T00:30:23;11.00;;;8.77;;
10550;SDS011;5324;50.684;3.862;2022-12-07T00:32:49;9.40;;;7.90;;
10550;SDS011;5324;50.684;3.862;2022-12-07T00:35:15;11.53;;;7.80;;
10550;SDS011;5324;50.684;3.862;2022-12-07T00:37:41;11.17;;;8.30;;
10550;SDS011;5324;50.684;3.862;2022-12-07T00:40:07;10.47;;;7.50;;
10550;SDS011;5324;50.684;3.862;2022-12-07T00:42:33;12.47;;;8.17;;
10550;SDS011;5324;50.684;3.862;2022-12-07T00:44:59;12.20;;;7.77;;
10550;SDS011;5324;50.684;3.862;2022-12-07T00:47:25;10.90;;;7.70;;
10550;SDS011;5324;50.684;3.862;2022-12-07T00:49:51;12.50;;;7.87;;
10550;SDS011;5324;50.684;3.862;2022-12-07T00:52:17;10.80;;;7.70;;
10550;SDS011;5324;50.684;3.862;2022-12-07T00:54:43;12.60;;;8.43;;
10550;SDS011;5324;50.684;3.862;2022-12-07T00:57:09;10.33;;;7.43;;
10550;SDS011;5324;50.684;3.862;2022-12-07T00:59:35;8.27;;;6.83;;
10550;SDS011;5324;50.684;3.862;2022-12-07T01:02:01;9.57;;;6.70;;
10550;SDS011;5324;50.684;3.862;2022-12-07T01:04:27;12.33;;;7.83;;
10550;SDS011;5324;50.684;3.862;2022-12-07T01:06:54;11.60;;;7.47;;
10550;SDS011;5324;50.684;3.862;2022-12-07T01:09:20;9.90;;;7.63;;
10550;SDS011;5324;50.684;3.862;2022-12-07T01:11:46;7.97;;;6.03;;
10550;SDS011;5324;50.684;3.862;2022-12-07T01:14:12;12.57;;;6.87;;
10550;SDS011;5324;50.684;3.862;2022-12-07T01:16:38;8.63;;;6.90;;
10550;SDS011;5324;50.684;3.862;2022-12-07T01:19:05;9.10;;;7.17;;
10550;SDS011;5324;50.684;3.862;2022-12-07T01:21:32;10.03;;;7.10;;
10550;SDS011;5324;50.684;3.862;2022-12-07T01:24:00;9.23;;;7.03;;
10550;SDS011;5324;50.684;3.862;2022-12-07T01:26:26;6.53;;;5.83;;
10550;SDS011;5324;50.684;3.862;2022-12-07T01:28:52;9.67;;;6.40;;
10550;SDS011;5324;50.684;3.862;2022-12-07T01:31:20;8.93;;;6.20;;
10550;SDS011;5324;50.684;3.862;2022-12-07T01:33:47;8.67;;;6.40;;
10550;SDS011;5324;50.684;3.862;2022-12-07T01:36:15;8.87;;;6.77;;
10550;SDS011;5324;50.684;3.862;2022-12-07T01:38:42;9.70;;;6.73;;
10550;SDS011;5324;50.684;3.862;2022-12-07T01:41:08;8.50;;;5.70;;
10550;SDS011;5324;50.684;3.862;2022-12-07T01:43:34;7.67;;;5.90;;
10550;SDS011;5324;50.684;3.862;2022-12-07T01:46:01;7.27;;;6.07;;
10550;SDS011;5324;50.684;3.862;2022-12-07T01:48:38;9.20;;;5.90;;
10550;SDS011;5324;50.684;3.862;2022-12-07T01:51:06;10.97;;;6.23;;
10550;SDS011;5324;50.684;3.862;2022-12-07T01:53:34;8.23;;;5.97;;
10550;SDS011;5324;50.684;3.862;2022-12-07T01:56:01;8.73;;;5.90;;
10550;SDS011;5324;50.684;3.862;2022-12-07T01:58:27;7.40;;;6.20;;
10550;SDS011;5324;50.684;3.862;2022-12-07T02:00:53;9.50;;;5.80;;
10550;SDS011;5324;50.684;3.862;2022-12-07T02:03:24;8.93;;;6.03;;
10550;SDS011;5324;50.684;3.862;2022-12-07T02:05:51;7.47;;;5.73;;
10550;SDS011;5324;50.684;3.862;2022-12-07T02:08:18;8.93;;;6.17;;
10550;SDS011;5324;50.684;3.862;2022-12-07T02:10:45;9.17;;;6.00;;
10550;SDS011;5324;50.684;3.862;2022-12-07T02:13:13;7.67;;;5.57;;
10550;SDS011;5324;50.684;3.862;2022-12-07T02:15:43;7.13;;;5.60;;
10550;SDS011;5324;50.684;3.862;2022-12-07T02:20:42;5.73;;;5.13;;
10550;SDS011;5324;50.684;3.862;2022-12-07T02:23:22;10.00;;;5.80;;
10550;SDS011;5324;50.684;3.862;2022-12-07T02:26:16;11.03;;;6.63;;
10550;SDS011;5324;50.684;3.862;2022-12-07T02:29:18;7.70;;;5.53;;
10550;SDS011;5324;50.684;3.862;2022-12-07T02:31:37;8.60;;;6.10;;
10550;SDS011;5324;50.684;3.862;2022-12-07T02:34:24;7.23;;;5.90;;
10550;SDS011;5324;50.684;3.862;2022-12-07T02:36:54;12.07;;;6.43;;
10550;SDS011;5324;50.684;3.862;2022-12-07T02:40:04;9.03;;;6.33;;
10550;SDS011;5324;50.684;3.862;2022-12-07T02:42:23;7.27;;;5.90;;
10550;SDS011;5324;50.684;3.862;2022-12-07T02:44:50;9.00;;;6.47;;
10550;SDS011;5324;50.684;3.862;2022-12-07T02:47:16;7.73;;;6.60;;
10550;SDS011;5324;50.684;3.862;2022-12-07T02:49:43;7.47;;;6.20;;
10550;SDS011;5324;50.684;3.862;2022-12-07T02:52:10;9.13;;;6.80;;
10550;SDS011;5324;50.684;3.862;2022-12-07T02:54:36;9.97;;;6.30;;
10550;SDS011;5324;50.684;3.862;2022-12-07T03:10:03;9.10;;;6.77;;
10550;SDS011;5324;50.684;3.862;2022-12-07T03:12:44;7.87;;;6.30;;
10550;SDS011;5324;50.684;3.862;2022-12-07T03:15:14;10.33;;;7.20;;
10550;SDS011;5324;50.684;3.862;2022-12-07T03:17:41;8.23;;;7.10;;
10550;SDS011;5324;50.684;3.862;2022-12-07T03:20:09;8.87;;;6.23;;
10550;SDS011;5324;50.684;3.862;2022-12-07T03:22:37;8.07;;;6.47;;
10550;SDS011;5324;50.684;3.862;2022-12-07T03:25:05;7.30;;;6.10;;
10550;SDS011;5324;50.684;3.862;2022-12-07T03:27:33;7.83;;;6.40;;
10550;SDS011;5324;50.684;3.862;2022-12-07T03:30:04;7.83;;;6.50;;
10550;SDS011;5324;50.684;3.862;2022-12-07T03:37:29;10.33;;;6.30;;
10550;SDS011;5324;50.684;3.862;2022-12-07T03:40:06;8.53;;;6.23;;
10550;SDS011;5324;50.684;3.862;2022-12-07T03:42:33;11.23;;;6.87;;
10550;SDS011;5324;50.684;3.862;2022-12-07T03:45:00;9.10;;;7.07;;
10550;SDS011;5324;50.684;3.862;2022-12-07T03:47:29;10.07;;;6.77;;
10550;SDS011;5324;50.684;3.862;2022-12-07T03:50:05;9.10;;;6.57;;
10550;SDS011;5324;50.684;3.862;2022-12-07T03:52:33;10.37;;;6.83;;
10550;SDS011;5324;50.684;3.862;2022-12-07T03:57:39;9.07;;;6.70;;
10550;SDS011;5324;50.684;3.862;2022-12-07T04:00:06;8.33;;;6.73;;
10550;SDS011;5324;50.684;3.862;2022-12-07T04:02:32;7.30;;;6.53;;
10550;SDS011;5324;50.684;3.862;2022-12-07T04:04:58;8.43;;;6.67;;
10550;SDS011;5324;50.684;3.862;2022-12-07T04:07:25;10.07;;;7.07;;
10550;SDS011;5324;50.684;3.862;2022-12-07T04:09:51;10.37;;;6.90;;
10550;SDS011;5324;50.684;3.862;2022-12-07T04:12:19;9.40;;;6.90;;
10550;SDS011;5324;50.684;3.862;2022-12-07T04:14:45;8.90;;;6.67;;
10550;SDS011;5324;50.684;3.862;2022-12-07T04:17:11;8.73;;;6.47;;
10550;SDS011;5324;50.684;3.862;2022-12-07T04:19:37;10.40;;;7.47;;
10550;SDS011;5324;50.684;3.862;2022-12-07T04:22:04;9.67;;;6.80;;
10550;SDS011;5324;50.684;3.862;2022-12-07T04:24:30;10.17;;;6.70;;
10550;SDS011;5324;50.684;3.862;2022-12-07T04:26:56;9.47;;;7.37;;
10550;SDS011;5324;50.684;3.862;2022-12-07T04:29:23;10.83;;;6.70;;
10550;SDS011;5324;50.684;3.862;2022-12-07T04:31:49;8.60;;;6.60;;
10550;SDS011;5324;50.684;3.862;2022-12-07T04:34:15;8.67;;;6.57;;
10550;SDS011;5324;50.684;3.862;2022-12-07T04:36:42;8.30;;;6.30;;
10550;SDS011;5324;50.684;3.862;2022-12-07T04:39:09;9.03;;;6.67;;
10550;SDS011;5324;50.684;3.862;2022-12-07T04:41:39;9.10;;;6.63;;
10550;SDS011;5324;50.684;3.862;2022-12-07T04:44:05;9.83;;;7.40;;
10550;SDS011;5324;50.684;3.862;2022-12-07T04:46:32;7.93;;;6.40;;
10550;SDS011;5324;50.684;3.862;2022-12-07T04:48:58;8.87;;;7.03;;
10550;SDS011;5324;50.684;3.862;2022-12-07T04:51:26;7.93;;;6.03;;
10550;SDS011;5324;50.684;3.862;2022-12-07T04:53:52;8.07;;;6.67;;
10550;SDS011;5324;50.684;3.862;2022-12-07T04:56:18;9.07;;;6.60;;
10550;SDS011;5324;50.684;3.862;2022-12-07T04:58:45;9.43;;;6.83;;
10550;SDS011;5324;50.684;3.862;2022-12-07T05:01:12;11.87;;;6.73;;
10550;SDS011;5324;50.684;3.862;2022-12-07T05:03:38;6.97;;;6.27;;
10550;SDS011;5324;50.684;3.862;2022-12-07T05:06:04;13.03;;;6.67;;
10550;SDS011;5324;50.684;3.862;2022-12-07T05:08:31;8.17;;;6.43;;
10550;SDS011;5324;50.684;3.862;2022-12-07T05:10:57;9.50;;;6.43;;
10550;SDS011;5324;50.684;3.862;2022-12-07T05:13:24;8.47;;;6.00;;
10550;SDS011;5324;50.684;3.862;2022-12-07T05:15:50;12.17;;;6.57;;
10550;SDS011;5324;50.684;3.862;2022-12-07T05:18:16;8.60;;;5.87;;
10550;SDS011;5324;50.684;3.862;2022-12-07T05:20:42;8.60;;;6.30;;
10550;SDS011;5324;50.684;3.862;2022-12-07T05:23:08;8.20;;;6.50;;
10550;SDS011;5324;50.684;3.862;2022-12-07T05:25:34;8.63;;;5.73;;
10550;SDS011;5324;50.684;3.862;2022-12-07T05:28:01;12.20;;;6.30;;
10550;SDS011;5324;50.684;3.862;2022-12-07T05:30:26;8.07;;;5.87;;
10550;SDS011;5324;50.684;3.862;2022-12-07T05:32:53;9.73;;;6.27;;
10550;SDS011;5324;50.684;3.862;2022-12-07T05:35:19;7.70;;;6.33;;
10550;SDS011;5324;50.684;3.862;2022-12-07T05:37:45;8.80;;;5.70;;
10550;SDS011;5324;50.684;3.862;2022-12-07T05:40:11;8.60;;;6.23;;
10550;SDS011;5324;50.684;3.862;2022-12-07T05:42:38;8.50;;;5.93;;
10550;SDS011;5324;50.684;3.862;2022-12-07T05:45:04;7.03;;;5.77;;
10550;SDS011;5324;50.684;3.862;2022-12-07T05:47:30;8.03;;;6.07;;
10550;SDS011;5324;50.684;3.862;2022-12-07T05:49:56;7.13;;;5.43;;
10550;SDS011;5324;50.684;3.862;2022-12-07T05:52:22;7.80;;;5.67;;
10550;SDS011;5324;50.684;3.862;2022-12-07T05:54:48;6.43;;;5.77;;
10550;SDS011;5324;50.684;3.862;2022-12-07T05:57:14;7.17;;;5.57;;
10550;SDS011;5324;50.684;3.862;2022-12-07T05:59:40;6.53;;;5.47;;
10550;SDS011;5324;50.684;3.862;2022-12-07T06:02:07;6.17;;;5.53;;
10550;SDS011;5324;50.684;3.862;2022-12-07T06:04:38;7.97;;;5.97;;
10550;SDS011;5324;50.684;3.862;2022-12-07T06:07:05;8.30;;;6.33;;
10550;SDS011;5324;50.684;3.862;2022-12-07T06:09:31;10.87;;;6.30;;
10550;SDS011;5324;50.684;3.862;2022-12-07T06:11:57;7.10;;;6.17;;
10550;SDS011;5324;50.684;3.862;2022-12-07T06:14:42;22.60;;;13.97;;
10550;SDS011;5324;50.684;3.862;2022-12-07T06:17:08;12.70;;;8.87;;
10550;SDS011;5324;50.684;3.862;2022-12-07T06:19:34;8.50;;;6.60;;
10550;SDS011;5324;50.684;3.862;2022-12-07T06:22:01;10.07;;;6.90;;
10550;SDS011;5324;50.684;3.862;2022-12-07T06:24:27;8.33;;;5.87;;
10550;SDS011;5324;50.684;3.862;2022-12-07T06:26:53;7.83;;;6.20;;
10550;SDS011;5324;50.684;3.862;2022-12-07T06:29:19;12.37;;;5.93;;
10550;SDS011;5324;50.684;3.862;2022-12-07T06:31:46;7.77;;;5.77;;
10550;SDS011;5324;50.684;3.862;2022-12-07T06:34:13;6.83;;;5.57;;
10550;SDS011;5324;50.684;3.862;2022-12-07T06:36:40;7.57;;;5.77;;
10550;SDS011;5324;50.684;3.862;2022-12-07T06:39:06;6.03;;;5.07;;
10550;SDS011;5324;50.684;3.862;2022-12-07T06:41:34;8.37;;;5.53;;
10550;SDS011;5324;50.684;3.862;2022-12-07T06:44:00;7.87;;;5.17;;
10550;SDS011;5324;50.684;3.862;2022-12-07T06:46:26;7.73;;;5.33;;
10550;SDS011;5324;50.684;3.862;2022-12-07T06:48:52;7.50;;;5.40;;
10550;SDS011;5324;50.684;3.862;2022-12-07T06:51:18;5.83;;;4.70;;
10550;SDS011;5324;50.684;3.862;2022-12-07T06:53:44;6.17;;;4.97;;
10550;SDS011;5324;50.684;3.862;2022-12-07T06:56:10;10.70;;;6.67;;
10550;SDS011;5324;50.684;3.862;2022-12-07T06:58:36;7.37;;;5.83;;
10550;SDS011;5324;50.684;3.862;2022-12-07T07:01:02;9.33;;;5.40;;
10550;SDS011;5324;50.684;3.862;2022-12-07T07:03:28;8.60;;;5.40;;
10550;SDS011;5324;50.684;3.862;2022-12-07T07:05:54;8.60;;;5.80;;
10550;SDS011;5324;50.684;3.862;2022-12-07T07:08:20;7.57;;;5.50;;
10550;SDS011;5324;50.684;3.862;2022-12-07T07:10:46;6.93;;;5.10;;
10550;SDS011;5324;50.684;3.862;2022-12-07T07:13:12;5.83;;;5.10;;
10550;SDS011;5324;50.684;3.862;2022-12-07T07:15:38;8.43;;;5.40;;
10550;SDS011;5324;50.684;3.862;2022-12-07T07:18:04;10.60;;;5.00;;
10550;SDS011;5324;50.684;3.862;2022-12-07T07:20:30;8.33;;;4.97;;
10550;SDS011;5324;50.684;3.862;2022-12-07T07:22:56;9.23;;;5.80;;
10550;SDS011;5324;50.684;3.862;2022-12-07T07:25:22;10.57;;;5.93;;
10550;SDS011;5324;50.684;3.862;2022-12-07T07:27:48;8.57;;;5.97;;
10550;SDS011;5324;50.684;3.862;2022-12-07T07:30:14;6.73;;;5.33;;
10550;SDS011;5324;50.684;3.862;2022-12-07T07:32:40;10.00;;;5.83;;
10550;SDS011;5324;50.684;3.862;2022-12-07T07:35:06;7.93;;;5.90;;
10550;SDS011;5324;50.684;3.862;2022-12-07T07:37:33;11.73;;;5.73;;
10550;SDS011;5324;50.684;3.862;2022-12-07T07:39:59;8.17;;;6.43;;
10550;SDS011;5324;50.684;3.862;2022-12-07T07:42:25;9.50;;;6.43;;
10550;SDS011;5324;50.684;3.862;2022-12-07T07:44:51;9.57;;;6.50;;
10550;SDS011;5324;50.684;3.862;2022-12-07T07:47:17;7.03;;;4.93;;
10550;SDS011;5324;50.684;3.862;2022-12-07T07:49:43;9.30;;;6.33;;
10550;SDS011;5324;50.684;3.862;2022-12-07T07:52:09;9.20;;;5.97;;
10550;SDS011;5324;50.684;3.862;2022-12-07T07:54:35;10.27;;;5.83;;
10550;SDS011;5324;50.684;3.862;2022-12-07T07:57:01;7.60;;;6.17;;
10550;SDS011;5324;50.684;3.862;2022-12-07T07:59:27;8.40;;;5.70;;
10550;SDS011;5324;50.684;3.862;2022-12-07T08:01:54;7.10;;;5.10;;
10550;SDS011;5324;50.684;3.862;2022-12-07T08:04:20;10.60;;;7.80;;
10550;SDS011;5324;50.684;3.862;2022-12-07T08:06:46;11.03;;;7.23;;
10550;SDS011;5324;50.684;3.862;2022-12-07T08:09:12;11.77;;;8.27;;
10550;SDS011;5324;50.684;3.862;2022-12-07T08:11:38;12.03;;;8.57;;
10550;SDS011;5324;50.684;3.862;2022-12-07T08:14:04;11.23;;;7.60;;
10550;SDS011;5324;50.684;3.862;2022-12-07T08:16:30;12.20;;;6.63;;
10550;SDS011;5324;50.684;3.862;2022-12-07T08:18:56;8.47;;;5.57;;
10550;SDS011;5324;50.684;3.862;2022-12-07T08:21:22;8.90;;;6.43;;
10550;SDS011;5324;50.684;3.862;2022-12-07T08:23:47;7.83;;;5.47;;
10550;SDS011;5324;50.684;3.862;2022-12-07T08:26:14;8.33;;;6.03;;
10550;SDS011;5324;50.684;3.862;2022-12-07T08:28:41;10.77;;;5.37;;
10550;SDS011;5324;50.684;3.862;2022-12-07T08:31:12;7.47;;;5.97;;
10550;SDS011;5324;50.684;3.862;2022-12-07T08:33:38;7.13;;;6.00;;
10550;SDS011;5324;50.684;3.862;2022-12-07T08:36:05;9.57;;;6.13;;
10550;SDS011;5324;50.684;3.862;2022-12-07T08:38:32;9.73;;;6.27;;
10550;SDS011;5324;50.684;3.862;2022-12-07T08:40:59;10.53;;;6.37;;
10550;SDS011;5324;50.684;3.862;2022-12-07T08:43:25;8.60;;;6.77;;
10550;SDS011;5324;50.684;3.862;2022-12-07T08:46:13;7.50;;;5.60;;
10550;SDS011;5324;50.684;3.862;2022-12-07T08:48:43;10.83;;;6.40;;
10550;SDS011;5324;50.684;3.862;2022-12-07T08:51:10;9.73;;;6.00;;
10550;SDS011;5324;50.684;3.862;2022-12-07T08:53:37;8.60;;;6.10;;
10550;SDS011;5324;50.684;3.862;2022-12-07T08:56:03;9.80;;;5.73;;
10550;SDS011;5324;50.684;3.862;2022-12-07T08:58:30;9.13;;;6.30;;
10550;SDS011;5324;50.684;3.862;2022-12-07T09:00:56;9.60;;;6.10;;
10550;SDS011;5324;50.684;3.862;2022-12-07T09:03:22;8.27;;;6.17;;
10550;SDS011;5324;50.684;3.862;2022-12-07T09:05:48;8.80;;;6.07;;
10550;SDS011;5324;50.684;3.862;2022-12-07T09:08:14;13.33;;;7.33;;
10550;SDS011;5324;50.684;3.862;2022-12-07T09:10:41;10.93;;;7.07;;
10550;SDS011;5324;50.684;3.862;2022-12-07T09:13:07;10.87;;;6.17;;
10550;SDS011;5324;50.684;3.862;2022-12-07T09:15:33;11.63;;;6.63;;
10550;SDS011;5324;50.684;3.862;2022-12-07T09:17:59;9.97;;;6.57;;
10550;SDS011;5324;50.684;3.862;2022-12-07T09:20:25;8.70;;;6.87;;
10550;SDS011;5324;50.684;3.862;2022-12-07T09:22:51;10.87;;;6.90;;
10550;SDS011;5324;50.684;3.862;2022-12-07T09:25:17;11.47;;;6.53;;
10550;SDS011;5324;50.684;3.862;2022-12-07T09:27:43;10.00;;;6.63;;
10550;SDS011;5324;50.684;3.862;2022-12-07T09:30:09;8.00;;;5.70;;
10550;SDS011;5324;50.684;3.862;2022-12-07T09:32:35;8.50;;;5.33;;
10550;SDS011;5324;50.684;3.862;2022-12-07T09:35:01;6.70;;;5.07;;
10550;SDS011;5324;50.684;3.862;2022-12-07T09:37:27;9.40;;;5.83;;
10550;SDS011;5324;50.684;3.862;2022-12-07T09:39:53;8.13;;;4.90;;
10550;SDS011;5324;50.684;3.862;2022-12-07T09:42:29;7.77;;;5.17;;
10550;SDS011;5324;50.684;3.862;2022-12-07T09:44:58;8.87;;;5.40;;
10550;SDS011;5324;50.684;3.862;2022-12-07T09:47:24;8.53;;;5.13;;
10550;SDS011;5324;50.684;3.862;2022-12-07T09:49:51;5.70;;;4.10;;
10550;SDS011;5324;50.684;3.862;2022-12-07T09:52:19;6.63;;;4.47;;
10550;SDS011;5324;50.684;3.862;2022-12-07T09:54:49;11.73;;;4.43;;
10550;SDS011;5324;50.684;3.862;2022-12-07T09:57:16;7.60;;;4.10;;
10550;SDS011;5324;50.684;3.862;2022-12-07T09:59:42;7.07;;;3.80;;
10550;SDS011;5324;50.684;3.862;2022-12-07T10:02:23;4.97;;;3.83;;
10550;SDS011;5324;50.684;3.862;2022-12-07T10:04:49;5.40;;;3.53;;
10550;SDS011;5324;50.684;3.862;2022-12-07T10:07:15;6.57;;;4.23;;
10550;SDS011;5324;50.684;3.862;2022-12-07T10:09:41;6.00;;;3.87;;
10550;SDS011;5324;50.684;3.862;2022-12-07T10:12:08;6.63;;;3.80;;
10550;SDS011;5324;50.684;3.862;2022-12-07T10:14:36;7.40;;;4.10;;
10550;SDS011;5324;50.684;3.862;2022-12-07T10:17:02;6.80;;;4.00;;
10550;SDS011;5324;50.684;3.862;2022-12-07T10:19:32;6.53;;;3.80;;
10550;SDS011;5324;50.684;3.862;2022-12-07T10:22:12;9.27;;;4.70;;
10550;SDS011;5324;50.684;3.862;2022-12-07T10:24:39;6.60;;;3.90;;
10550;SDS011;5324;50.684;3.862;2022-12-07T10:27:26;8.03;;;4.00;;
10550;SDS011;5324;50.684;3.862;2022-12-07T10:29:54;6.63;;;3.40;;
10550;SDS011;5324;50.684;3.862;2022-12-07T10:32:35;5.00;;;4.03;;
10550;SDS011;5324;50.684;3.862;2022-12-07T10:35:19;6.27;;;3.50;;
10550;SDS011;5324;50.684;3.862;2022-12-07T10:37:45;5.60;;;3.30;;
10550;SDS011;5324;50.684;3.862;2022-12-07T10:40:27;6.73;;;3.27;;
10550;SDS011;5324;50.684;3.862;2022-12-07T10:43:04;4.60;;;3.67;;
10550;SDS011;5324;50.684;3.862;2022-12-07T10:45:30;4.80;;;3.50;;
10550;SDS011;5324;50.684;3.862;2022-12-07T10:50:44;5.33;;;2.50;;
10550;SDS011;5324;50.684;3.862;2022-12-07T11:00:43;5.50;;;3.30;;
10550;SDS011;5324;50.684;3.862;2022-12-07T11:05:54;5.53;;;3.30;;
10550;SDS011;5324;50.684;3.862;2022-12-07T11:11:04;6.17;;;3.20;;
10550;SDS011;5324;50.684;3.862;2022-12-07T11:18:43;6.37;;;3.93;;
10550;SDS011;5324;50.684;3.862;2022-12-07T11:21:27;5.27;;;3.67;;
10550;SDS011;5324;50.684;3.862;2022-12-07T11:32:11;9.97;;;6.27;;
10550;SDS011;5324;50.684;3.862;2022-12-07T11:34:42;5.07;;;3.53;;
10550;SDS011;5324;50.684;3.862;2022-12-07T11:37:13;6.13;;;3.60;;
10550;SDS011;5324;50.684;3.862;2022-12-07T11:39:42;5.03;;;3.17;;
10550;SDS011;5324;50.684;3.862;2022-12-07T11:42:11;6.87;;;3.30;;
10550;SDS011;5324;50.684;3.862;2022-12-07T11:44:56;4.43;;;3.03;;
10550;SDS011;5324;50.684;3.862;2022-12-07T11:50:27;4.53;;;3.00;;
10550;SDS011;5324;50.684;3.862;2022-12-07T11:55:29;6.47;;;3.80;;
10550;SDS011;5324;50.684;3.862;2022-12-07T11:58:03;5.57;;;3.50;;
10550;SDS011;5324;50.684;3.862;2022-12-07T12:00:30;6.77;;;3.70;;
10550;SDS011;5324;50.684;3.862;2022-12-07T12:03:01;5.80;;;2.67;;
10550;SDS011;5324;50.684;3.862;2022-12-07T12:05:29;6.73;;;3.50;;
10550;SDS011;5324;50.684;3.862;2022-12-07T12:10:27;6.03;;;3.07;;
10550;SDS011;5324;50.684;3.862;2022-12-07T12:18:15;4.00;;;2.63;;
10550;SDS011;5324;50.684;3.862;2022-12-07T12:23:21;3.60;;;2.23;;
10550;SDS011;5324;50.684;3.862;2022-12-07T12:25:52;4.47;;;2.67;;
10550;SDS011;5324;50.684;3.862;2022-12-07T12:28:30;4.73;;;2.50;;
10550;SDS011;5324;50.684;3.862;2022-12-07T12:33:31;4.77;;;3.67;;
10550;SDS011;5324;50.684;3.862;2022-12-07T12:51:42;3.10;;;2.10;;
10550;SDS011;5324;50.684;3.862;2022-12-07T12:59:29;3.70;;;2.07;;
10550;SDS011;5324;50.684;3.862;2022-12-07T13:21:01;3.33;;;2.50;;
10550;SDS011;5324;50.684;3.862;2022-12-07T13:23:29;8.17;;;3.00;;
10550;SDS011;5324;50.684;3.862;2022-12-07T13:26:04;3.30;;;2.33;;
10550;SDS011;5324;50.684;3.862;2022-12-07T13:28:38;2.43;;;1.90;;
10550;SDS011;5324;50.684;3.862;2022-12-07T13:33:44;2.83;;;2.03;;
10550;SDS011;5324;50.684;3.862;2022-12-07T13:36:29;2.97;;;1.93;;
10550;SDS011;5324;50.684;3.862;2022-12-07T13:39:10;4.70;;;1.83;;
10550;SDS011;5324;50.684;3.862;2022-12-07T13:41:36;7.00;;;2.70;;
10550;SDS011;5324;50.684;3.862;2022-12-07T13:44:16;3.53;;;2.70;;
10550;SDS011;5324;50.684;3.862;2022-12-07T13:49:19;3.97;;;2.00;;
10550;SDS011;5324;50.684;3.862;2022-12-07T13:51:46;3.03;;;2.33;;
10550;SDS011;5324;50.684;3.862;2022-12-07T13:54:13;4.77;;;2.27;;
10550;SDS011;5324;50.684;3.862;2022-12-07T13:56:39;3.93;;;2.30;;
10550;SDS011;5324;50.684;3.862;2022-12-07T13:59:10;2.77;;;2.03;;
10550;SDS011;5324;50.684;3.862;2022-12-07T14:01:38;4.50;;;1.40;;
10550;SDS011;5324;50.684;3.862;2022-12-07T14:04:28;2.90;;;1.70;;
10550;SDS011;5324;50.684;3.862;2022-12-07T14:06:55;2.57;;;1.57;;
10550;SDS011;5324;50.684;3.862;2022-12-07T14:09:22;3.27;;;1.50;;
10550;SDS011;5324;50.684;3.862;2022-12-07T14:11:49;1.67;;;1.20;;
10550;SDS011;5324;50.684;3.862;2022-12-07T14:14:33;1.67;;;1.30;;
10550;SDS011;5324;50.684;3.862;2022-12-07T14:19:40;2.57;;;1.47;;
10550;SDS011;5324;50.684;3.862;2022-12-07T14:22:07;4.13;;;1.30;;
10550;SDS011;5324;50.684;3.862;2022-12-07T14:24:41;7.07;;;1.77;;
10550;SDS011;5324;50.684;3.862;2022-12-07T14:27:16;2.20;;;1.40;;
10550;SDS011;5324;50.684;3.862;2022-12-07T14:29:42;2.47;;;1.40;;
10550;SDS011;5324;50.684;3.862;2022-12-07T14:32:19;1.90;;;1.07;;
10550;SDS011;5324;50.684;3.862;2022-12-07T14:34:52;3.00;;;1.40;;
10550;SDS011;5324;50.684;3.862;2022-12-07T14:37:18;1.60;;;1.50;;
10550;SDS011;5324;50.684;3.862;2022-12-07T14:39:44;3.87;;;1.77;;
10550;SDS011;5324;50.684;3.862;2022-12-07T14:42:10;4.30;;;1.80;;
10550;SDS011;5324;50.684;3.862;2022-12-07T14:44:36;3.03;;;1.67;;
10550;SDS011;5324;50.684;3.862;2022-12-07T14:47:02;3.13;;;1.83;;
10550;SDS011;5324;50.684;3.862;2022-12-07T14:49:28;3.13;;;1.57;;
10550;SDS011;5324;50.684;3.862;2022-12-07T14:51:54;4.67;;;1.80;;
10550;SDS011;5324;50.684;3.862;2022-12-07T14:54:20;4.37;;;2.30;;
10550;SDS011;5324;50.684;3.862;2022-12-07T14:56:49;5.13;;;2.30;;
10550;SDS011;5324;50.684;3.862;2022-12-07T14:59:16;5.17;;;2.10;;
10550;SDS011;5324;50.684;3.862;2022-12-07T15:01:42;2.07;;;1.60;;
10550;SDS011;5324;50.684;3.862;2022-12-07T15:04:08;3.37;;;1.87;;
10550;SDS011;5324;50.684;3.862;2022-12-07T15:06:34;2.57;;;1.83;;
10550;SDS011;5324;50.684;3.862;2022-12-07T15:09:00;2.90;;;1.73;;
10550;SDS011;5324;50.684;3.862;2022-12-07T15:11:26;2.57;;;1.47;;
10550;SDS011;5324;50.684;3.862;2022-12-07T15:13:52;3.70;;;1.70;;
10550;SDS011;5324;50.684;3.862;2022-12-07T15:16:34;4.83;;;2.20;;
10550;SDS011;5324;50.684;3.862;2022-12-07T15:19:01;3.60;;;1.90;;
10550;SDS011;5324;50.684;3.862;2022-12-07T15:21:27;3.07;;;1.70;;
10550;SDS011;5324;50.684;3.862;2022-12-07T15:23:53;2.57;;;1.70;;
10550;SDS011;5324;50.684;3.862;2022-12-07T15:26:19;2.07;;;1.87;;
10550;SDS011;5324;50.684;3.862;2022-12-07T15:28:45;3.00;;;1.83;;
10550;SDS011;5324;50.684;3.862;2022-12-07T15:31:14;4.60;;;1.80;;
10550;SDS011;5324;50.684;3.862;2022-12-07T15:33:41;1.80;;;1.40;;
10550;SDS011;5324;50.684;3.862;2022-12-07T15:36:08;4.73;;;1.83;;
10550;SDS011;5324;50.684;3.862;2022-12-07T15:38:38;5.30;;;2.30;;
10550;SDS011;5324;50.684;3.862;2022-12-07T15:41:04;3.13;;;1.87;;
10550;SDS011;5324;50.684;3.862;2022-12-07T15:43:30;3.87;;;2.40;;
10550;SDS011;5324;50.684;3.862;2022-12-07T15:46:14;6.53;;;2.50;;
10550;SDS011;5324;50.684;3.862;2022-12-07T15:48:40;5.47;;;2.00;;
10550;SDS011;5324;50.684;3.862;2022-12-07T15:51:07;6.20;;;2.50;;
10550;SDS011;5324;50.684;3.862;2022-12-07T15:53:34;4.07;;;1.77;;
10550;SDS011;5324;50.684;3.862;2022-12-07T15:56:00;2.90;;;2.27;;
10550;SDS011;5324;50.684;3.862;2022-12-07T15:58:26;2.60;;;2.40;;
10550;SDS011;5324;50.684;3.862;2022-12-07T16:00:52;4.03;;;2.10;;
10550;SDS011;5324;50.684;3.862;2022-12-07T16:03:18;3.90;;;2.03;;
10550;SDS011;5324;50.684;3.862;2022-12-07T16:05:50;2.27;;;1.97;;
10550;SDS011;5324;50.684;3.862;2022-12-07T16:08:17;3.93;;;2.37;;
10550;SDS011;5324;50.684;3.862;2022-12-07T16:10:43;3.80;;;2.40;;
10550;SDS011;5324;50.684;3.862;2022-12-07T16:13:09;3.07;;;2.53;;
10550;SDS011;5324;50.684;3.862;2022-12-07T16:15:42;3.93;;;2.57;;
10550;SDS011;5324;50.684;3.862;2022-12-07T16:18:08;2.60;;;2.40;;
10550;SDS011;5324;50.684;3.862;2022-12-07T16:20:34;3.93;;;2.27;;
10550;SDS011;5324;50.684;3.862;2022-12-07T16:23:00;1.80;;;1.70;;
10550;SDS011;5324;50.684;3.862;2022-12-07T16:25:27;4.23;;;2.43;;
10550;SDS011;5324;50.684;3.862;2022-12-07T16:27:53;2.53;;;1.90;;
10550;SDS011;5324;50.684;3.862;2022-12-07T16:30:19;4.03;;;1.90;;
10550;SDS011;5324;50.684;3.862;2022-12-07T16:32:45;2.47;;;2.20;;
10550;SDS011;5324;50.684;3.862;2022-12-07T16:35:11;4.53;;;1.90;;
10550;SDS011;5324;50.684;3.862;2022-12-07T16:37:37;3.60;;;2.17;;
10550;SDS011;5324;50.684;3.862;2022-12-07T16:40:03;3.20;;;2.27;;
10550;SDS011;5324;50.684;3.862;2022-12-07T16:42:33;5.60;;;2.03;;
10550;SDS011;5324;50.684;3.862;2022-12-07T16:44:59;5.10;;;2.17;;
10550;SDS011;5324;50.684;3.862;2022-12-07T16:47:25;3.30;;;2.13;;
10550;SDS011;5324;50.684;3.862;2022-12-07T16:49:51;2.87;;;2.40;;
10550;SDS011;5324;50.684;3.862;2022-12-07T16:52:18;2.37;;;2.17;;
10550;SDS011;5324;50.684;3.862;2022-12-07T16:54:44;4.53;;;2.43;;
10550;SDS011;5324;50.684;3.862;2022-12-07T16:57:10;2.47;;;2.27;;
10550;SDS011;5324;50.684;3.862;2022-12-07T16:59:36;5.57;;;2.70;;
10550;SDS011;5324;50.684;3.862;2022-12-07T17:02:02;4.03;;;2.20;;